createdAt,value
2023-11-15T00:00:26.781Z,97781.94
2023-11-15T00:02:54.058Z,97784.94
2023-11-15T00:05:21.416Z,97792.56
2023-11-15T00:07:48.306Z,97801.81
2023-11-15T00:10:15.492Z,97793.13
2023-11-15T00:12:44.448Z,97798.56
2023-11-15T00:15:11.653Z,97805.91
2023-11-15T00:17:38.977Z,97817.59
2023-11-15T00:20:06.911Z,97819.50
2023-11-15T00:22:33.948Z,97823.31
2023-11-15T00:25:01.015Z,97815.16
2023-11-15T00:27:27.917Z,97829.84
2023-11-15T00:29:55.257Z,97841.25
2023-11-15T00:32:22.981Z,97819.75
2023-11-15T00:34:50.195Z,97838.78
2023-11-15T00:37:17.339Z,97846.94
2023-11-15T00:39:44.890Z,97845.31
2023-11-15T00:42:12.502Z,97868.16
2023-11-15T00:44:40.231Z,97868.44
2023-11-15T00:47:07.159Z,97876.84
2023-11-15T00:49:34.427Z,97893.12
2023-11-15T00:52:01.473Z,97888.78
2023-11-15T00:54:28.355Z,97897.50
2023-11-15T00:56:57.103Z,97905.66
2023-11-15T00:59:27.810Z,97910.00
2023-11-15T01:01:59.665Z,97891.78
2023-11-15T01:04:27.064Z,97895.59
2023-11-15T01:06:54.415Z,97890.44
2023-11-15T01:09:24.966Z,97889.91
2023-11-15T01:11:54.194Z,97898.88
2023-11-15T01:14:22.127Z,97885.28
2023-11-15T01:16:49.384Z,97874.69
2023-11-15T01:19:16.970Z,97880.69
2023-11-15T01:21:44.068Z,97878.25
2023-11-15T01:26:55.548Z,97862.50
2023-11-15T01:29:23.239Z,97867.13
2023-11-15T01:31:51.957Z,97850.00
2023-11-15T01:34:20.521Z,97856.22
2023-11-15T01:36:47.818Z,97838.31
2023-11-15T01:39:17.891Z,97836.94
2023-11-15T01:41:49.839Z,97844.84
2023-11-15T01:44:19.589Z,97850.81
2023-11-15T01:46:51.876Z,97867.37
2023-11-15T01:49:21.604Z,97857.63
2023-11-15T01:51:51.043Z,97847.84
2023-11-15T01:54:19.938Z,97855.72
2023-11-15T01:56:47.412Z,97845.94
2023-11-15T01:59:15.600Z,97850.03
2023-11-15T02:01:43.177Z,97860.09
2023-11-15T02:04:10.510Z,97858.72
2023-11-15T02:06:38.468Z,97860.06
2023-11-15T02:09:06.911Z,97864.97
2023-11-15T02:11:34.231Z,97852.47
2023-11-15T02:14:01.538Z,97857.38
2023-11-15T02:16:29.412Z,97842.69
2023-11-15T02:18:57.525Z,97829.41
2023-11-15T02:21:25.162Z,97839.44
2023-11-15T02:23:52.915Z,97842.72
2023-11-15T02:26:21.224Z,97843.78
2023-11-15T02:28:48.367Z,97845.69
2023-11-15T02:31:15.675Z,97845.16
2023-11-15T02:33:42.799Z,97839.47
2023-11-15T02:36:10.089Z,97837.03
2023-11-15T02:38:37.517Z,97844.63
2023-11-15T02:41:04.730Z,97841.91
2023-11-15T02:43:31.781Z,97852.22
2023-11-15T02:45:58.606Z,97848.41
2023-11-15T02:48:25.613Z,97858.47
2023-11-15T02:50:52.901Z,97855.75
2023-11-15T02:53:20.367Z,97840.84
2023-11-15T02:55:47.614Z,97856.84
2023-11-15T02:58:15.367Z,97839.47
2023-11-15T03:00:43.482Z,97835.66
2023-11-15T03:03:10.904Z,97840.00
2023-11-15T03:05:38.335Z,97849.50
2023-11-15T03:08:06.986Z,97837.84
2023-11-15T03:10:35.230Z,97843.53
2023-11-15T03:13:02.527Z,97833.22
2023-11-15T03:15:30.318Z,97840.28
2023-11-15T03:17:57.457Z,97839.47
2023-11-15T03:20:25.286Z,97837.53
2023-11-15T03:22:52.371Z,97830.50
2023-11-15T03:25:19.415Z,97824.78
2023-11-15T03:27:46.571Z,97826.41
2023-11-15T03:30:14.715Z,97826.16
2023-11-15T03:32:42.932Z,97828.84
2023-11-15T03:35:10.914Z,97819.38
2023-11-15T03:37:38.170Z,97832.62
2023-11-15T03:40:09.872Z,97835.59
2023-11-15T03:42:37.687Z,97841.84
2023-11-15T03:45:06.482Z,97843.72
2023-11-15T03:47:34.578Z,97848.06
2023-11-15T03:50:02.865Z,97844.78
2023-11-15T03:52:30.564Z,97840.97
2023-11-15T03:54:57.911Z,97853.41
2023-11-15T03:57:25.842Z,97845.81
2023-11-15T04:00:00.155Z,97865.84
2023-11-15T04:02:28.100Z,97860.16
2023-11-15T04:04:55.677Z,97869.63
2023-11-15T04:07:22.870Z,97879.09
2023-11-15T04:09:51.199Z,97881.28
2023-11-15T04:12:17.981Z,97867.19
2023-11-15T04:14:45.193Z,97879.09
2023-11-15T04:17:12.142Z,97862.03
2023-11-15T04:19:39.443Z,97869.28
2023-11-15T04:22:12.405Z,97864.94
2023-11-15T04:24:42.055Z,97877.41
2023-11-15T04:27:09.323Z,97869.53
2023-11-15T04:29:38.693Z,97883.88
2023-11-15T04:32:06.107Z,97875.47
2023-11-15T04:34:33.225Z,97871.94
2023-11-15T04:37:00.375Z,97872.75
2023-11-15T04:39:27.649Z,97872.47
2023-11-15T04:41:55.066Z,97898.16
2023-11-15T04:44:21.936Z,97896.53
2023-11-15T04:46:48.937Z,97890.84
2023-11-15T04:49:15.769Z,97879.72
2023-11-15T04:51:45.554Z,97878.06
2023-11-15T04:54:12.316Z,97882.94
2023-11-15T04:56:39.237Z,97884.81
2023-11-15T04:59:06.319Z,97885.88
2023-11-15T05:01:33.372Z,97897.81
2023-11-15T05:04:00.586Z,97885.34
2023-11-15T05:06:28.138Z,97885.06
2023-11-15T05:08:55.341Z,97888.25
2023-11-15T05:11:23.037Z,97890.13
2023-11-15T05:13:49.861Z,97887.66
2023-11-15T05:16:17.094Z,97890.91
2023-11-15T05:18:44.569Z,97887.63
2023-11-15T05:21:11.831Z,97904.41
2023-11-15T05:23:40.809Z,97892.47
2023-11-15T05:26:09.759Z,97901.62
2023-11-15T05:28:36.904Z,97890.25
2023-11-15T05:31:04.549Z,97890.78
2023-11-15T05:33:32.253Z,97884.81
2023-11-15T05:35:59.467Z,97894.25
2023-11-15T05:38:26.808Z,97882.37
2023-11-15T05:40:53.666Z,97868.84
2023-11-15T05:43:21.385Z,97868.03
2023-11-15T05:45:49.057Z,97877.25
2023-11-15T05:48:16.406Z,97878.41
2023-11-15T05:50:43.647Z,97882.50
2023-11-15T05:53:10.775Z,97882.50
2023-11-15T05:55:37.668Z,97878.22
2023-11-15T05:58:05.985Z,97895.28
2023-11-15T06:00:33.119Z,97899.38
2023-11-15T06:03:01.311Z,97918.09
2023-11-15T06:05:30.613Z,97920.28
2023-11-15T06:07:57.769Z,97917.31
2023-11-15T06:10:28.221Z,97913.00
2023-11-15T06:12:56.311Z,97924.38
2023-11-15T06:15:23.928Z,97919.22
2023-11-15T06:17:53.420Z,97928.72
2023-11-15T06:20:20.481Z,97934.94
2023-11-15T06:22:48.067Z,97937.41
2023-11-15T06:25:22.901Z,97947.16
2023-11-15T06:27:50.158Z,97955.84
2023-11-15T06:30:18.880Z,97945.81
2023-11-15T06:32:46.449Z,97939.31
2023-11-15T06:35:19.983Z,97950.97
2023-11-15T06:37:48.057Z,97964.00
2023-11-15T06:40:19.735Z,97968.09
2023-11-15T06:42:47.648Z,97973.50
2023-11-15T06:45:14.849Z,97979.47
2023-11-15T06:47:45.150Z,97990.06
2023-11-15T06:50:13.770Z,97994.94
2023-11-15T06:52:41.493Z,98003.06
2023-11-15T06:55:12.145Z,98022.84
2023-11-15T06:57:42.430Z,98020.72
2023-11-15T07:00:10.974Z,98033.19
2023-11-15T07:02:38.865Z,98028.31
2023-11-15T07:05:07.224Z,98032.91
2023-11-15T07:07:34.773Z,98046.19
2023-11-15T07:10:04.559Z,98033.72
2023-11-15T07:12:32.176Z,98047.28
2023-11-15T07:14:59.382Z,98028.31
2023-11-15T07:17:26.613Z,98039.16
2023-11-15T07:19:54.057Z,98053.25
2023-11-15T07:22:21.367Z,98038.88
2023-11-15T07:24:48.392Z,98026.16
2023-11-15T07:27:18.840Z,98053.25
2023-11-15T07:29:46.399Z,98032.38
2023-11-15T07:32:13.325Z,98032.38
2023-11-15T07:34:41.458Z,98031.31
2023-11-15T07:37:09.318Z,98032.94
2023-11-15T07:39:36.584Z,98027.25
2023-11-15T07:42:03.775Z,98023.22
2023-11-15T07:44:31.800Z,98024.03
2023-11-15T07:47:00.634Z,98028.13
2023-11-15T07:49:29.994Z,98015.41
2023-11-15T07:51:57.422Z,98021.13
2023-11-15T07:54:24.587Z,98031.69
2023-11-15T07:56:51.799Z,98018.44
2023-11-15T07:59:22.774Z,98029.56
2023-11-15T08:01:50.147Z,98041.78
2023-11-15T08:04:17.468Z,98048.56
2023-11-15T08:06:44.977Z,98051.56
2023-11-15T08:09:26.249Z,98052.72
2023-11-15T08:11:57.899Z,98057.34
2023-11-15T08:14:26.968Z,98066.03
2023-11-15T08:16:56.006Z,98070.09
2023-11-15T08:19:23.146Z,98075.81
2023-11-15T08:21:50.568Z,98087.75
2023-11-15T08:24:27.792Z,98087.25
2023-11-15T08:26:56.510Z,98094.84
2023-11-15T08:29:23.705Z,98099.78
2023-11-15T08:31:51.600Z,98112.81
2023-11-15T08:34:23.786Z,98113.09
2023-11-15T08:36:52.413Z,98118.81
2023-11-15T08:39:19.920Z,98127.50
2023-11-15T08:41:49.063Z,98130.50
2023-11-15T08:44:19.305Z,98126.44
2023-11-15T08:46:46.770Z,98125.91
2023-11-15T08:49:17.561Z,98120.00
2023-11-15T08:51:51.930Z,98120.00
2023-11-15T08:54:19.491Z,98118.41
2023-11-15T08:56:46.846Z,98117.87
2023-11-15T08:59:16.074Z,98120.06
2023-11-15T09:01:44.033Z,98121.97
2023-11-15T09:04:14.509Z,98122.84
2023-11-15T09:06:48.941Z,98113.34
2023-11-15T09:09:17.397Z,98120.16
2023-11-15T09:11:44.695Z,98117.72
2023-11-15T09:14:11.886Z,98115.00
2023-11-15T09:16:38.805Z,98129.44
2023-11-15T09:19:06.019Z,98138.69
2023-11-15T09:21:34.757Z,98130.56
2023-11-15T09:24:02.610Z,98143.88
2023-11-15T09:26:29.652Z,98143.66
2023-11-15T09:28:57.501Z,98149.37
2023-11-15T09:31:24.644Z,98132.00
2023-11-15T09:33:53.262Z,98151.28
2023-11-15T09:36:20.573Z,98151.28
2023-11-15T09:38:47.700Z,98159.22
2023-11-15T09:41:14.863Z,98162.19
2023-11-15T09:43:45.572Z,98169.53
2023-11-15T09:46:14.013Z,98172.53
2023-11-15T09:48:53.262Z,98173.38
2023-11-15T09:51:26.223Z,98183.22
2023-11-15T09:54:05.207Z,98178.31
2023-11-15T09:56:46.863Z,98168.81
2023-11-15T09:59:15.746Z,98170.44
2023-11-15T10:01:47.748Z,98169.06
2023-11-15T10:04:29.179Z,98174.81
2023-11-15T10:07:05.172Z,98163.38
2023-11-15T10:09:43.989Z,98175.34
2023-11-15T10:12:12.004Z,98176.16
2023-11-15T10:14:54.460Z,98181.88
2023-11-15T10:17:39.707Z,98191.97
2023-11-15T10:20:19.695Z,98193.31
2023-11-15T10:22:48.133Z,98197.41
2023-11-15T10:25:16.130Z,98203.66
2023-11-15T10:27:43.443Z,98219.16
2023-11-15T10:30:14.420Z,98216.16
2023-11-15T10:32:42.748Z,98208.81
2023-11-15T10:35:10.024Z,98224.59
2023-11-15T10:37:49.894Z,98218.06
2023-11-15T10:40:17.912Z,98222.97
2023-11-15T10:42:51.820Z,98218.59
2023-11-15T10:45:24.082Z,98230.84
2023-11-15T10:47:59.865Z,98218.03
2023-11-15T10:50:32.005Z,98214.53
2023-11-15T10:53:00.684Z,98203.63
2023-11-15T10:55:30.988Z,98196.00
2023-11-15T10:58:02.114Z,98202.78
2023-11-15T11:00:31.518Z,98198.41
2023-11-15T11:02:59.141Z,98191.84
2023-11-15T11:05:43.192Z,98198.97
2023-11-15T11:08:15.704Z,98198.41
2023-11-15T11:10:57.444Z,98194.31
2023-11-15T11:13:24.951Z,98194.84
2023-11-15T11:15:53.078Z,98200.03
2023-11-15T11:18:21.403Z,98208.72
2023-11-15T11:21:03.122Z,98202.72
2023-11-15T11:23:35.304Z,98194.03
2023-11-15T11:26:35.415Z,98207.91
2023-11-15T11:29:04.418Z,98209.53
2023-11-15T11:31:31.805Z,98207.88
2023-11-15T11:34:16.076Z,98198.88
2023-11-15T11:36:51.724Z,98212.75
2023-11-15T11:39:25.386Z,98221.19
2023-11-15T11:41:52.663Z,98215.16
2023-11-15T11:44:19.649Z,98234.81
2023-11-15T11:47:04.051Z,98226.06
2023-11-15T11:49:47.921Z,98229.62
2023-11-15T11:52:18.540Z,98219.25
2023-11-15T11:54:51.396Z,98225.78
2023-11-15T11:57:26.230Z,98224.66
2023-11-15T12:00:14.804Z,98231.75
2023-11-15T12:02:46.944Z,98238.84
2023-11-15T12:05:15.709Z,98236.09
2023-11-15T12:07:46.128Z,98233.94
2023-11-15T12:10:17.062Z,98240.50
2023-11-15T12:13:03.973Z,98247.31
2023-11-15T12:15:32.140Z,98242.97
2023-11-15T12:18:01.214Z,98247.31
2023-11-15T12:20:41.597Z,98256.31
2023-11-15T12:23:09.930Z,98267.22
2023-11-15T12:25:53.602Z,98269.94
2023-11-15T12:28:24.116Z,98271.28
2023-11-15T12:30:53.294Z,98286.56
2023-11-15T12:33:20.754Z,98287.38
2023-11-15T12:35:49.075Z,98290.34
2023-11-15T12:38:16.272Z,98295.53
2023-11-15T12:40:45.816Z,98304.25
2023-11-15T12:43:23.936Z,98306.97
2023-11-15T12:46:15.556Z,98311.03
2023-11-15T12:48:43.149Z,98306.97
2023-11-15T12:51:10.491Z,98316.78
2023-11-15T12:53:37.386Z,98317.59
2023-11-15T12:56:05.417Z,98319.50
2023-11-15T12:58:32.445Z,98320.34
2023-11-15T13:01:01.893Z,98327.69
2023-11-15T13:03:31.963Z,98320.34
2023-11-15T13:06:13.735Z,98326.88
2023-11-15T13:08:53.839Z,98337.50
2023-11-15T13:11:23.472Z,98345.69
2023-11-15T13:13:51.691Z,98342.97
2023-11-15T13:16:20.365Z,98341.31
2023-11-15T13:18:49.022Z,98346.78
2023-11-15T13:21:18.545Z,98357.69
2023-11-15T13:23:47.184Z,98357.69
2023-11-15T13:26:17.639Z,98366.69
2023-11-15T13:28:49.001Z,98366.41
2023-11-15T13:31:24.935Z,98381.12
2023-11-15T13:33:54.323Z,98386.59
2023-11-15T13:36:21.892Z,98388.75
2023-11-15T13:38:48.823Z,98394.22
2023-11-15T13:41:24.102Z,98390.69
2023-11-15T13:43:53.653Z,98388.75
2023-11-15T13:46:24.451Z,98396.94
2023-11-15T13:48:53.999Z,98390.69
2023-11-15T13:51:22.908Z,98407.03
2023-11-15T13:53:50.512Z,98396.94
2023-11-15T13:56:17.633Z,98396.94
2023-11-15T13:58:44.486Z,98401.31
2023-11-15T14:01:12.268Z,98400.22
2023-11-15T14:03:39.831Z,98400.22
2023-11-15T14:06:07.978Z,98403.75
2023-11-15T14:08:50.960Z,98402.66
2023-11-15T14:11:24.580Z,98401.84
2023-11-15T14:13:51.634Z,98408.94
2023-11-15T14:16:18.505Z,98412.75
2023-11-15T14:18:50.505Z,98424.47
2023-11-15T14:21:18.280Z,98430.19
2023-11-15T14:23:45.310Z,98425.03
2023-11-15T14:26:15.556Z,98426.13
2023-11-15T14:28:44.717Z,98407.03
2023-11-15T14:31:12.129Z,98420.66
2023-11-15T14:33:39.971Z,98417.94
2023-11-15T14:36:08.686Z,98431.84
2023-11-15T14:38:35.564Z,98440.31
2023-11-15T14:41:04.737Z,98446.03
2023-11-15T14:43:33.294Z,98459.13
2023-11-15T14:46:00.243Z,98474.94
2023-11-15T14:48:28.312Z,98480.66
2023-11-15T14:50:55.534Z,98477.13
2023-11-15T14:53:22.874Z,98472.22
2023-11-15T14:55:50.757Z,98473.31
2023-11-15T14:58:19.846Z,98470.84
2023-11-15T15:00:47.989Z,98479.31
2023-11-15T15:03:16.668Z,98469.75
2023-11-15T15:05:45.075Z,98470.00
2023-11-15T15:08:15.290Z,98478.47
2023-11-15T15:10:42.962Z,98472.47
2023-11-15T15:13:11.153Z,98470.28
2023-11-15T15:15:39.836Z,98482.00
2023-11-15T15:18:13.213Z,98488.56
2023-11-15T15:20:45.402Z,98488.56
2023-11-15T15:23:13.800Z,98492.34
2023-11-15T15:25:43.873Z,98500.25
2023-11-15T15:28:11.216Z,98510.84
2023-11-15T15:30:38.484Z,98508.66
2023-11-15T15:33:08.238Z,98508.09
2023-11-15T15:35:35.949Z,98508.88
2023-11-15T15:38:03.830Z,98514.59
2023-11-15T15:40:38.113Z,98506.13
2023-11-15T15:43:07.524Z,98519.22
2023-11-15T15:45:37.196Z,98524.91
2023-11-15T15:48:06.193Z,98530.87
2023-11-15T15:50:33.585Z,98531.94
2023-11-15T15:53:01.086Z,98539.84
2023-11-15T15:55:28.068Z,98550.16
2023-11-15T15:57:55.295Z,98564.06
2023-11-15T16:00:23.898Z,98558.31
2023-11-15T16:02:51.534Z,98558.59
2023-11-15T16:05:19.350Z,98567.56
2023-11-15T16:07:47.548Z,98562.09
2023-11-15T16:10:14.670Z,98562.63
2023-11-15T16:12:42.029Z,98562.63
2023-11-15T16:15:17.821Z,98573.53
2023-11-15T16:17:45.805Z,98576.50
2023-11-15T16:20:13.398Z,98578.09
2023-11-15T16:22:40.186Z,98582.16
2023-11-15T16:25:07.809Z,98583.00
2023-11-15T16:27:37.526Z,98587.88
2023-11-15T16:30:06.688Z,98591.41
2023-11-15T16:32:36.077Z,98601.47
2023-11-15T16:35:05.210Z,98602.56
2023-11-15T16:37:36.163Z,98614.53
2023-11-15T16:40:07.298Z,98622.16
2023-11-15T16:42:34.311Z,98630.03
2023-11-15T16:45:02.305Z,98635.97
2023-11-15T16:47:29.560Z,98641.44
2023-11-15T16:49:58.972Z,98644.94
2023-11-15T16:52:26.298Z,98646.84
2023-11-15T16:54:53.547Z,98648.75
2023-11-15T16:57:20.692Z,98649.50
2023-11-15T16:59:50.623Z,98649.19
2023-11-15T17:02:18.678Z,98649.97
2023-11-15T17:04:46.066Z,98667.37
2023-11-15T17:07:13.375Z,98656.22
2023-11-15T17:09:42.302Z,98652.94
2023-11-15T17:12:09.736Z,98658.06
2023-11-15T17:14:37.019Z,98653.13
2023-11-15T17:17:05.630Z,98659.09
2023-11-15T17:19:32.956Z,98659.87
2023-11-15T17:21:59.993Z,98662.53
2023-11-15T17:24:27.339Z,98661.16
2023-11-15T17:26:54.687Z,98669.56
2023-11-15T17:29:22.188Z,98677.69
2023-11-15T17:31:49.496Z,98669.19
2023-11-15T17:34:16.809Z,98675.37
2023-11-15T17:36:44.910Z,98684.88
2023-11-15T17:39:13.943Z,98680.50
2023-11-15T17:41:42.419Z,98688.88
2023-11-15T17:44:13.012Z,98693.75
2023-11-15T17:46:44.137Z,98687.75
2023-11-15T17:49:12.332Z,98698.03
2023-11-15T17:51:40.001Z,98705.31
2023-11-15T17:54:08.664Z,98711.50
2023-11-15T17:56:35.887Z,98711.75
2023-11-15T17:59:04.102Z,98713.34
2023-11-15T18:01:32.967Z,98710.31
2023-11-15T18:04:00.372Z,98714.59
2023-11-15T18:06:27.344Z,98714.03
2023-11-15T18:08:54.442Z,98716.16
2023-11-15T18:11:21.691Z,98722.38
2023-11-15T18:13:48.527Z,98728.31
2023-11-15T18:16:17.028Z,98731.78
2023-11-15T18:18:44.256Z,98735.81
2023-11-15T18:21:12.266Z,98729.47
2023-11-15T18:23:40.221Z,98733.53
2023-11-15T18:26:07.437Z,98742.16
2023-11-15T18:28:34.978Z,98733.72
2023-11-15T18:31:07.555Z,98738.81
2023-11-15T18:33:35.765Z,98740.97
2023-11-15T18:36:04.093Z,98735.53
2023-11-15T18:38:31.665Z,98736.28
2023-11-15T18:41:00.225Z,98730.84
2023-11-15T18:43:28.502Z,98735.47
2023-11-15T18:45:56.624Z,98736.19
2023-11-15T18:48:26.538Z,98747.31
2023-11-15T18:50:54.508Z,98742.63
2023-11-15T18:53:21.892Z,98754.47
2023-11-15T18:55:49.289Z,98740.59
2023-11-15T18:58:16.963Z,98748.41
2023-11-15T19:00:44.904Z,98755.97
2023-11-15T19:03:12.857Z,98752.59
2023-11-15T19:05:43.437Z,98747.41
2023-11-15T19:08:12.820Z,98755.22
2023-11-15T19:10:41.149Z,98765.75
2023-11-15T19:13:08.832Z,98757.53
2023-11-15T19:15:39.032Z,98762.12
2023-11-15T19:18:10.348Z,98768.06
2023-11-15T19:20:40.374Z,98779.59
2023-11-15T19:23:10.259Z,98774.94
2023-11-15T19:25:40.031Z,98769.16
2023-11-15T19:28:09.266Z,98761.41
2023-11-15T19:30:37.092Z,98752.69
2023-11-15T19:33:05.366Z,98764.59
2023-11-15T19:35:34.258Z,98764.00
2023-11-15T19:38:02.507Z,98768.84
2023-11-15T19:40:30.939Z,98780.44
2023-11-15T19:42:59.335Z,98787.16
2023-11-15T19:45:27.703Z,98787.41
2023-11-15T19:47:56.586Z,98797.09
2023-11-15T19:50:26.976Z,98802.44
2023-11-15T19:52:56.052Z,98796.31
2023-11-15T19:55:31.212Z,98801.38
2023-11-15T19:58:00.033Z,98793.50
2023-11-15T20:00:28.705Z,98804.34
2023-11-15T20:02:57.015Z,98800.94
2023-11-15T20:05:25.585Z,98804.16
2023-11-15T20:07:54.915Z,98804.59
2023-11-15T20:10:23.742Z,98808.84
2023-11-15T20:12:53.163Z,98805.56
2023-11-15T20:15:21.363Z,98809.00
2023-11-15T20:17:49.830Z,98813.59
2023-11-15T20:20:21.817Z,98815.03
2023-11-15T20:22:52.868Z,98809.84
2023-11-15T20:25:22.739Z,98813.63
2023-11-15T20:27:50.643Z,98811.94
2023-11-15T20:30:19.891Z,98814.56
2023-11-15T20:32:48.454Z,98812.56
2023-11-15T20:35:16.857Z,98797.63
2023-11-15T20:37:44.830Z,98797.53
2023-11-15T20:40:16.545Z,98802.94
2023-11-15T20:42:47.741Z,98811.53
2023-11-15T20:45:16.247Z,98811.37
2023-11-15T20:47:44.423Z,98819.75
2023-11-15T20:50:14.854Z,98821.88
2023-11-15T20:52:42.373Z,98831.53
2023-11-15T20:55:11.054Z,98813.66
2023-11-15T20:57:38.893Z,98805.75
2023-11-15T21:00:13.133Z,98798.94
2023-11-15T21:02:40.635Z,98792.34
2023-11-15T21:05:12.705Z,98807.19
2023-11-15T21:07:41.039Z,98798.56
2023-11-15T21:10:09.047Z,98814.22
2023-11-15T21:12:36.018Z,98834.47
2023-11-15T21:15:04.825Z,98850.34
2023-11-15T21:17:33.594Z,98847.03
2023-11-15T21:20:00.786Z,98857.87
2023-11-15T21:22:27.680Z,98868.56
2023-11-15T21:24:55.073Z,98869.62
2023-11-15T21:27:22.501Z,98890.44
2023-11-15T21:29:49.588Z,98892.75
2023-11-15T21:32:16.747Z,98885.25
2023-11-15T21:34:45.241Z,98889.81
2023-11-15T21:37:18.302Z,98880.22
2023-11-15T21:39:46.384Z,98867.50
2023-11-15T21:42:13.278Z,98852.47
2023-11-15T21:44:44.336Z,98857.87
2023-11-15T21:47:11.665Z,98869.75
2023-11-15T21:49:38.869Z,98869.75
2023-11-15T21:52:07.895Z,98859.75
2023-11-15T21:54:37.235Z,98854.94
2023-11-15T21:57:05.532Z,98842.00
2023-11-15T21:59:32.689Z,98832.81
2023-11-15T22:01:59.580Z,98842.00
2023-11-15T22:04:26.505Z,98837.41
2023-11-15T22:06:59.518Z,98843.63
2023-11-15T22:09:32.005Z,98860.09
2023-11-15T22:11:59.263Z,98863.63
2023-11-15T22:14:26.840Z,98854.94
2023-11-15T22:16:54.076Z,98846.81
2023-11-15T22:19:21.211Z,98828.69
2023-11-15T22:21:48.274Z,98830.81
2023-11-15T22:24:15.447Z,98836.22
2023-11-15T22:26:42.563Z,98857.87
2023-11-15T22:29:09.672Z,98854.34
2023-11-15T22:31:37.140Z,98841.28
2023-11-15T22:34:04.086Z,98847.38
2023-11-15T22:36:31.300Z,98854.06
2023-11-15T22:38:58.392Z,98866.19
2023-11-15T22:41:30.232Z,98848.78
2023-11-15T22:43:57.677Z,98860.19
2023-11-15T22:46:24.830Z,98853.94
2023-11-15T22:48:52.617Z,98857.34
2023-11-15T22:51:19.506Z,98864.28
2023-11-15T22:53:46.646Z,98876.16
2023-11-15T22:56:16.190Z,98863.34
2023-11-15T22:58:43.019Z,98852.50
2023-11-15T23:01:13.025Z,98846.06
2023-11-15T23:03:41.261Z,98834.25
2023-11-15T23:06:13.071Z,98838.84
2023-11-15T23:08:42.965Z,98851.31
2023-11-15T23:11:10.049Z,98851.31
2023-11-15T23:13:41.461Z,98838.84
2023-11-15T23:16:09.506Z,98838.38
2023-11-15T23:18:36.587Z,98841.91
2023-11-15T23:21:03.780Z,98835.66
2023-11-15T23:23:31.311Z,98852.50
2023-11-15T23:25:58.432Z,98847.31
2023-11-15T23:28:25.229Z,98842.13
2023-11-15T23:30:55.512Z,98841.53
2023-11-15T23:33:23.098Z,98837.56
2023-11-15T23:35:50.135Z,98840.50
2023-11-15T23:38:17.266Z,98849.19
2023-11-15T23:40:44.343Z,98845.22
2023-11-15T23:43:12.485Z,98852.72
2023-11-15T23:45:39.401Z,98850.63
2023-11-15T23:48:08.394Z,98856.25
2023-11-15T23:50:35.703Z,98842.37
2023-11-15T23:53:02.940Z,98852.81
2023-11-15T23:55:30.247Z,98852.22
2023-11-15T23:58:04.294Z,98857.06
